sensor_id;sensor_type;location;lat;lon;timestamp;P1;durP1;ratioP1;P2;durP2;ratioP2
54157;SDS011;40065;49.894;10.358;2022-12-11T00:00:50;30.15;;;14.85;;
54157;SDS011;40065;49.894;10.358;2022-12-11T00:05:53;28.90;;;15.23;;
54157;SDS011;40065;49.894;10.358;2022-12-11T00:10:55;33.60;;;16.77;;
54157;SDS011;40065;49.894;10.358;2022-12-11T00:15:57;30.92;;;16.33;;
54157;SDS011;40065;49.894;10.358;2022-12-11T00:20:59;35.10;;;15.20;;
54157;SDS011;40065;49.894;10.358;2022-12-11T00:26:05;37.35;;;18.13;;
54157;SDS011;40065;49.894;10.358;2022-12-11T00:31:11;29.40;;;14.13;;
54157;SDS011;40065;49.894;10.358;2022-12-11T00:36:19;29.63;;;14.40;;
54157;SDS011;40065;49.894;10.358;2022-12-11T00:41:23;25.98;;;12.38;;
54157;SDS011;40065;49.894;10.358;2022-12-11T00:46:25;26.27;;;12.60;;
54157;SDS011;40065;49.894;10.358;2022-12-11T00:51:26;27.67;;;14.38;;
54157;SDS011;40065;49.894;10.358;2022-12-11T00:56:29;26.02;;;13.18;;
54157;SDS011;40065;49.894;10.358;2022-12-11T01:01:30;23.58;;;12.95;;
54157;SDS011;40065;49.894;10.358;2022-12-11T01:06:32;25.33;;;13.57;;
54157;SDS011;40065;49.894;10.358;2022-12-11T01:11:34;22.55;;;12.32;;
54157;SDS011;40065;49.894;10.358;2022-12-11T01:16:36;26.77;;;12.93;;
54157;SDS011;40065;49.894;10.358;2022-12-11T01:21:38;29.95;;;15.65;;
54157;SDS011;40065;49.894;10.358;2022-12-11T01:26:40;32.10;;;16.40;;
54157;SDS011;40065;49.894;10.358;2022-12-11T01:31:42;34.63;;;17.48;;
54157;SDS011;40065;49.894;10.358;2022-12-11T01:36:43;36.75;;;17.92;;
54157;SDS011;40065;49.894;10.358;2022-12-11T01:41:45;32.38;;;16.05;;
54157;SDS011;40065;49.894;10.358;2022-12-11T01:46:47;31.67;;;15.85;;
54157;SDS011;40065;49.894;10.358;2022-12-11T01:51:50;37.78;;;17.35;;
54157;SDS011;40065;49.894;10.358;2022-12-11T01:57:00;30.02;;;15.85;;
54157;SDS011;40065;49.894;10.358;2022-12-11T02:02:18;37.78;;;17.42;;
54157;SDS011;40065;49.894;10.358;2022-12-11T02:07:26;31.98;;;16.63;;
54157;SDS011;40065;49.894;10.358;2022-12-11T02:28:42;33.67;;;15.38;;
54157;SDS011;40065;49.894;10.358;2022-12-11T02:33:57;35.78;;;15.93;;
54157;SDS011;40065;49.894;10.358;2022-12-11T02:39:03;31.58;;;15.40;;
54157;SDS011;40065;49.894;10.358;2022-12-11T02:44:07;35.53;;;16.83;;
54157;SDS011;40065;49.894;10.358;2022-12-11T02:49:12;30.55;;;15.02;;
54157;SDS011;40065;49.894;10.358;2022-12-11T02:54:17;35.40;;;15.47;;
54157;SDS011;40065;49.894;10.358;2022-12-11T02:59:23;28.67;;;13.73;;
54157;SDS011;40065;49.894;10.358;2022-12-11T03:04:31;32.45;;;14.98;;
54157;SDS011;40065;49.894;10.358;2022-12-11T03:09:43;25.27;;;11.80;;
54157;SDS011;40065;49.894;10.358;2022-12-11T03:14:46;29.70;;;13.93;;
54157;SDS011;40065;49.894;10.358;2022-12-11T03:19:54;22.30;;;11.52;;
54157;SDS011;40065;49.894;10.358;2022-12-11T03:25:19;26.13;;;12.70;;
54157;SDS011;40065;49.894;10.358;2022-12-11T03:30:23;27.40;;;12.30;;
54157;SDS011;40065;49.894;10.358;2022-12-11T03:35:32;23.30;;;11.10;;
54157;SDS011;40065;49.894;10.358;2022-12-11T03:40:39;24.83;;;11.25;;
54157;SDS011;40065;49.894;10.358;2022-12-11T03:45:45;24.35;;;12.07;;
54157;SDS011;40065;49.894;10.358;2022-12-11T03:55:52;26.85;;;12.18;;
54157;SDS011;40065;49.894;10.358;2022-12-11T04:00:58;26.13;;;11.65;;
54157;SDS011;40065;49.894;10.358;2022-12-11T04:06:00;24.40;;;11.70;;
54157;SDS011;40065;49.894;10.358;2022-12-11T04:11:02;21.02;;;10.68;;
54157;SDS011;40065;49.894;10.358;2022-12-11T04:16:23;22.42;;;10.18;;
54157;SDS011;40065;49.894;10.358;2022-12-11T04:21:24;22.05;;;10.70;;
54157;SDS011;40065;49.894;10.358;2022-12-11T04:26:45;26.52;;;11.70;;
54157;SDS011;40065;49.894;10.358;2022-12-11T04:31:47;24.40;;;11.90;;
54157;SDS011;40065;49.894;10.358;2022-12-11T04:36:50;30.50;;;12.95;;
54157;SDS011;40065;49.894;10.358;2022-12-11T04:41:52;22.88;;;10.55;;
54157;SDS011;40065;49.894;10.358;2022-12-11T04:46:54;26.52;;;11.52;;
54157;SDS011;40065;49.894;10.358;2022-12-11T04:51:56;23.38;;;10.88;;
54157;SDS011;40065;49.894;10.358;2022-12-11T04:56:57;26.25;;;11.95;;
54157;SDS011;40065;49.894;10.358;2022-12-11T05:01:59;22.45;;;10.98;;
54157;SDS011;40065;49.894;10.358;2022-12-11T05:07:01;21.92;;;10.55;;
54157;SDS011;40065;49.894;10.358;2022-12-11T05:12:03;25.67;;;11.15;;
54157;SDS011;40065;49.894;10.358;2022-12-11T05:17:05;22.77;;;10.80;;
54157;SDS011;40065;49.894;10.358;2022-12-11T05:22:06;28.05;;;12.38;;
54157;SDS011;40065;49.894;10.358;2022-12-11T05:27:08;24.80;;;11.27;;
54157;SDS011;40065;49.894;10.358;2022-12-11T05:32:11;29.70;;;13.40;;
54157;SDS011;40065;49.894;10.358;2022-12-11T05:37:12;31.52;;;13.38;;
54157;SDS011;40065;49.894;10.358;2022-12-11T05:42:14;22.63;;;10.70;;
54157;SDS011;40065;49.894;10.358;2022-12-11T05:47:16;27.15;;;12.15;;
54157;SDS011;40065;49.894;10.358;2022-12-11T05:52:20;25.83;;;13.07;;
54157;SDS011;40065;49.894;10.358;2022-12-11T05:57:22;27.25;;;12.00;;
54157;SDS011;40065;49.894;10.358;2022-12-11T06:02:23;24.65;;;11.82;;
54157;SDS011;40065;49.894;10.358;2022-12-11T06:07:25;28.48;;;13.05;;
54157;SDS011;40065;49.894;10.358;2022-12-11T06:12:27;25.35;;;10.85;;
54157;SDS011;40065;49.894;10.358;2022-12-11T06:17:30;20.67;;;10.45;;
54157;SDS011;40065;49.894;10.358;2022-12-11T06:22:31;21.73;;;10.77;;
54157;SDS011;40065;49.894;10.358;2022-12-11T06:27:33;28.92;;;12.93;;
54157;SDS011;40065;49.894;10.358;2022-12-11T06:32:35;21.88;;;9.88;;
54157;SDS011;40065;49.894;10.358;2022-12-11T06:37:37;24.45;;;11.27;;
54157;SDS011;40065;49.894;10.358;2022-12-11T06:42:40;22.25;;;10.10;;
54157;SDS011;40065;49.894;10.358;2022-12-11T06:47:42;25.33;;;11.88;;
54157;SDS011;40065;49.894;10.358;2022-12-11T06:52:44;24.15;;;10.70;;
54157;SDS011;40065;49.894;10.358;2022-12-11T06:57:45;27.88;;;12.32;;
54157;SDS011;40065;49.894;10.358;2022-12-11T07:02:49;28.27;;;12.82;;
54157;SDS011;40065;49.894;10.358;2022-12-11T07:07:54;25.23;;;12.13;;
54157;SDS011;40065;49.894;10.358;2022-12-11T07:12:56;24.52;;;11.35;;
54157;SDS011;40065;49.894;10.358;2022-12-11T07:17:58;20.42;;;9.30;;
54157;SDS011;40065;49.894;10.358;2022-12-11T07:22:59;24.58;;;11.10;;
54157;SDS011;40065;49.894;10.358;2022-12-11T07:28:01;22.13;;;11.15;;
54157;SDS011;40065;49.894;10.358;2022-12-11T07:33:03;24.38;;;11.15;;
54157;SDS011;40065;49.894;10.358;2022-12-11T07:38:05;20.17;;;9.98;;
54157;SDS011;40065;49.894;10.358;2022-12-11T07:43:08;29.35;;;13.25;;
54157;SDS011;40065;49.894;10.358;2022-12-11T07:48:10;29.20;;;14.55;;
54157;SDS011;40065;49.894;10.358;2022-12-11T07:53:12;30.48;;;13.50;;
54157;SDS011;40065;49.894;10.358;2022-12-11T07:58:14;26.10;;;12.20;;
54157;SDS011;40065;49.894;10.358;2022-12-11T08:03:16;26.98;;;12.95;;
54157;SDS011;40065;49.894;10.358;2022-12-11T08:08:18;24.98;;;12.65;;
54157;SDS011;40065;49.894;10.358;2022-12-11T08:13:20;21.58;;;11.05;;
54157;SDS011;40065;49.894;10.358;2022-12-11T08:18:22;21.60;;;11.27;;
54157;SDS011;40065;49.894;10.358;2022-12-11T08:23:24;21.73;;;11.00;;
54157;SDS011;40065;49.894;10.358;2022-12-11T08:28:25;20.90;;;10.98;;
54157;SDS011;40065;49.894;10.358;2022-12-11T08:33:27;23.50;;;11.27;;
54157;SDS011;40065;49.894;10.358;2022-12-11T08:38:29;22.23;;;10.88;;
54157;SDS011;40065;49.894;10.358;2022-12-11T08:43:32;21.17;;;10.70;;
54157;SDS011;40065;49.894;10.358;2022-12-11T08:48:34;20.95;;;10.60;;
54157;SDS011;40065;49.894;10.358;2022-12-11T08:53:39;18.60;;;9.65;;
54157;SDS011;40065;49.894;10.358;2022-12-11T08:58:41;22.15;;;11.35;;
54157;SDS011;40065;49.894;10.358;2022-12-11T09:03:44;23.67;;;11.73;;
54157;SDS011;40065;49.894;10.358;2022-12-11T09:08:46;19.10;;;10.05;;
54157;SDS011;40065;49.894;10.358;2022-12-11T09:13:53;18.70;;;9.95;;
54157;SDS011;40065;49.894;10.358;2022-12-11T09:18:56;17.55;;;9.35;;
54157;SDS011;40065;49.894;10.358;2022-12-11T09:23:59;19.48;;;9.88;;
54157;SDS011;40065;49.894;10.358;2022-12-11T09:29:02;24.58;;;12.02;;
54157;SDS011;40065;49.894;10.358;2022-12-11T09:34:06;18.92;;;10.00;;
54157;SDS011;40065;49.894;10.358;2022-12-11T09:39:09;24.13;;;11.60;;
54157;SDS011;40065;49.894;10.358;2022-12-11T09:54:39;18.50;;;9.48;;
54157;SDS011;40065;49.894;10.358;2022-12-11T10:00:02;19.45;;;9.10;;
54157;SDS011;40065;49.894;10.358;2022-12-11T10:10:41;20.10;;;9.48;;
54157;SDS011;40065;49.894;10.358;2022-12-11T10:20:55;21.35;;;10.32;;
54157;SDS011;40065;49.894;10.358;2022-12-11T10:26:01;24.50;;;11.98;;
54157;SDS011;40065;49.894;10.358;2022-12-11T10:31:15;19.50;;;10.43;;
54157;SDS011;40065;49.894;10.358;2022-12-11T10:36:27;18.88;;;9.52;;
54157;SDS011;40065;49.894;10.358;2022-12-11T10:46:32;16.15;;;8.52;;
54157;SDS011;40065;49.894;10.358;2022-12-11T10:51:34;16.83;;;8.80;;
54157;SDS011;40065;49.894;10.358;2022-12-11T10:56:37;16.47;;;9.00;;
54157;SDS011;40065;49.894;10.358;2022-12-11T11:01:39;13.82;;;8.05;;
54157;SDS011;40065;49.894;10.358;2022-12-11T11:06:47;13.93;;;7.90;;
54157;SDS011;40065;49.894;10.358;2022-12-11T11:11:49;18.92;;;9.50;;
54157;SDS011;40065;49.894;10.358;2022-12-11T11:16:54;17.85;;;9.23;;
54157;SDS011;40065;49.894;10.358;2022-12-11T11:22:01;16.13;;;7.93;;
54157;SDS011;40065;49.894;10.358;2022-12-11T11:32:42;15.93;;;8.35;;
54157;SDS011;40065;49.894;10.358;2022-12-11T11:37:45;14.68;;;8.60;;
54157;SDS011;40065;49.894;10.358;2022-12-11T11:43:20;14.20;;;7.53;;
54157;SDS011;40065;49.894;10.358;2022-12-11T11:53:49;15.23;;;8.00;;
54157;SDS011;40065;49.894;10.358;2022-12-11T12:04:29;13.73;;;7.32;;
54157;SDS011;40065;49.894;10.358;2022-12-11T12:09:52;12.73;;;7.18;;
54157;SDS011;40065;49.894;10.358;2022-12-11T12:25:41;13.98;;;8.27;;
54157;SDS011;40065;49.894;10.358;2022-12-11T12:41:31;11.95;;;7.25;;
54157;SDS011;40065;49.894;10.358;2022-12-11T12:52:15;8.10;;;4.90;;
54157;SDS011;40065;49.894;10.358;2022-12-11T12:57:25;17.08;;;7.35;;
54157;SDS011;40065;49.894;10.358;2022-12-11T13:02:26;22.83;;;10.40;;
54157;SDS011;40065;49.894;10.358;2022-12-11T13:07:30;13.48;;;6.88;;
54157;SDS011;40065;49.894;10.358;2022-12-11T13:12:43;12.98;;;7.22;;
54157;SDS011;40065;49.894;10.358;2022-12-11T13:17:46;13.55;;;6.60;;
54157;SDS011;40065;49.894;10.358;2022-12-11T13:28:20;11.68;;;6.50;;
54157;SDS011;40065;49.894;10.358;2022-12-11T13:33:27;13.48;;;6.72;;
54157;SDS011;40065;49.894;10.358;2022-12-11T13:38:30;14.40;;;7.82;;
54157;SDS011;40065;49.894;10.358;2022-12-11T13:43:32;14.77;;;7.80;;
54157;SDS011;40065;49.894;10.358;2022-12-11T13:48:38;16.88;;;8.07;;
54157;SDS011;40065;49.894;10.358;2022-12-11T13:53:46;15.13;;;8.10;;
54157;SDS011;40065;49.894;10.358;2022-12-11T13:58:48;18.23;;;9.18;;
54157;SDS011;40065;49.894;10.358;2022-12-11T14:03:54;17.40;;;7.97;;
54157;SDS011;40065;49.894;10.358;2022-12-11T14:08:59;14.95;;;7.53;;
54157;SDS011;40065;49.894;10.358;2022-12-11T14:14:03;14.82;;;7.15;;
54157;SDS011;40065;49.894;10.358;2022-12-11T14:19:08;15.35;;;6.40;;
54157;SDS011;40065;49.894;10.358;2022-12-11T14:24:15;12.00;;;6.03;;
54157;SDS011;40065;49.894;10.358;2022-12-11T14:29:28;12.20;;;6.28;;
54157;SDS011;40065;49.894;10.358;2022-12-11T14:39:40;14.65;;;7.43;;
54157;SDS011;40065;49.894;10.358;2022-12-11T14:45:01;13.13;;;6.90;;
54157;SDS011;40065;49.894;10.358;2022-12-11T14:50:21;18.50;;;10.02;;
54157;SDS011;40065;49.894;10.358;2022-12-11T14:55:28;17.25;;;7.18;;
54157;SDS011;40065;49.894;10.358;2022-12-11T15:00:33;11.80;;;6.15;;
54157;SDS011;40065;49.894;10.358;2022-12-11T15:05:46;13.90;;;7.13;;
54157;SDS011;40065;49.894;10.358;2022-12-11T15:11:01;14.60;;;7.30;;
54157;SDS011;40065;49.894;10.358;2022-12-11T15:16:16;14.30;;;7.03;;
54157;SDS011;40065;49.894;10.358;2022-12-11T15:21:27;24.25;;;11.02;;
54157;SDS011;40065;49.894;10.358;2022-12-11T15:26:37;16.67;;;8.80;;
54157;SDS011;40065;49.894;10.358;2022-12-11T15:31:45;16.80;;;7.60;;
54157;SDS011;40065;49.894;10.358;2022-12-11T15:36:47;17.35;;;7.63;;
54157;SDS011;40065;49.894;10.358;2022-12-11T15:41:49;14.23;;;6.78;;
54157;SDS011;40065;49.894;10.358;2022-12-11T15:46:51;17.95;;;8.27;;
54157;SDS011;40065;49.894;10.358;2022-12-11T15:51:53;19.33;;;8.88;;
54157;SDS011;40065;49.894;10.358;2022-12-11T15:56:55;23.17;;;11.45;;
54157;SDS011;40065;49.894;10.358;2022-12-11T16:01:58;24.33;;;11.80;;
54157;SDS011;40065;49.894;10.358;2022-12-11T16:07:00;19.85;;;9.95;;
54157;SDS011;40065;49.894;10.358;2022-12-11T16:12:02;21.60;;;10.20;;
54157;SDS011;40065;49.894;10.358;2022-12-11T16:17:05;22.08;;;10.73;;
54157;SDS011;40065;49.894;10.358;2022-12-11T16:22:08;20.00;;;9.93;;
54157;SDS011;40065;49.894;10.358;2022-12-11T16:27:11;26.00;;;11.60;;
54157;SDS011;40065;49.894;10.358;2022-12-11T16:32:13;24.58;;;11.90;;
54157;SDS011;40065;49.894;10.358;2022-12-11T16:37:15;24.98;;;11.35;;
54157;SDS011;40065;49.894;10.358;2022-12-11T16:42:17;24.80;;;11.27;;
54157;SDS011;40065;49.894;10.358;2022-12-11T16:47:20;38.10;;;15.57;;
54157;SDS011;40065;49.894;10.358;2022-12-11T16:52:23;52.67;;;18.65;;
54157;SDS011;40065;49.894;10.358;2022-12-11T16:57:25;34.10;;;15.57;;
54157;SDS011;40065;49.894;10.358;2022-12-11T17:02:28;26.30;;;12.88;;
54157;SDS011;40065;49.894;10.358;2022-12-11T17:07:30;29.33;;;14.52;;
54157;SDS011;40065;49.894;10.358;2022-12-11T17:12:32;26.27;;;12.48;;
54157;SDS011;40065;49.894;10.358;2022-12-11T17:17:34;31.90;;;14.60;;
54157;SDS011;40065;49.894;10.358;2022-12-11T17:22:36;26.90;;;12.68;;
54157;SDS011;40065;49.894;10.358;2022-12-11T17:27:38;26.38;;;13.75;;
54157;SDS011;40065;49.894;10.358;2022-12-11T17:32:40;30.67;;;14.50;;
54157;SDS011;40065;49.894;10.358;2022-12-11T17:37:42;26.17;;;13.38;;
54157;SDS011;40065;49.894;10.358;2022-12-11T17:42:44;34.63;;;18.10;;
54157;SDS011;40065;49.894;10.358;2022-12-11T17:47:46;33.30;;;16.58;;
54157;SDS011;40065;49.894;10.358;2022-12-11T17:52:47;29.67;;;13.85;;
54157;SDS011;40065;49.894;10.358;2022-12-11T17:57:49;31.35;;;14.80;;
54157;SDS011;40065;49.894;10.358;2022-12-11T18:02:51;32.70;;;14.27;;
54157;SDS011;40065;49.894;10.358;2022-12-11T18:07:53;24.73;;;12.13;;
54157;SDS011;40065;49.894;10.358;2022-12-11T18:12:58;24.90;;;12.65;;
54157;SDS011;40065;49.894;10.358;2022-12-11T18:18:00;24.30;;;11.57;;
54157;SDS011;40065;49.894;10.358;2022-12-11T18:23:03;24.10;;;10.23;;
54157;SDS011;40065;49.894;10.358;2022-12-11T18:28:05;19.38;;;9.98;;
54157;SDS011;40065;49.894;10.358;2022-12-11T18:33:07;20.70;;;9.68;;
54157;SDS011;40065;49.894;10.358;2022-12-11T18:38:09;23.33;;;10.25;;
54157;SDS011;40065;49.894;10.358;2022-12-11T18:43:12;21.23;;;10.18;;
54157;SDS011;40065;49.894;10.358;2022-12-11T18:48:14;22.45;;;10.18;;
54157;SDS011;40065;49.894;10.358;2022-12-11T18:53:16;19.48;;;9.02;;
54157;SDS011;40065;49.894;10.358;2022-12-11T18:58:18;19.83;;;9.77;;
54157;SDS011;40065;49.894;10.358;2022-12-11T19:03:20;21.10;;;10.57;;
54157;SDS011;40065;49.894;10.358;2022-12-11T19:08:22;21.52;;;10.18;;
54157;SDS011;40065;49.894;10.358;2022-12-11T19:13:24;20.38;;;10.88;;
54157;SDS011;40065;49.894;10.358;2022-12-11T19:18:26;18.02;;;8.82;;
54157;SDS011;40065;49.894;10.358;2022-12-11T19:23:28;18.25;;;9.15;;
54157;SDS011;40065;49.894;10.358;2022-12-11T19:28:29;20.20;;;9.77;;
54157;SDS011;40065;49.894;10.358;2022-12-11T19:33:34;23.95;;;10.80;;
54157;SDS011;40065;49.894;10.358;2022-12-11T19:38:36;19.55;;;8.13;;
54157;SDS011;40065;49.894;10.358;2022-12-11T19:43:39;16.95;;;7.80;;
54157;SDS011;40065;49.894;10.358;2022-12-11T19:48:41;19.27;;;9.52;;
54157;SDS011;40065;49.894;10.358;2022-12-11T19:53:43;17.77;;;8.77;;
54157;SDS011;40065;49.894;10.358;2022-12-11T19:58:46;21.30;;;9.90;;
54157;SDS011;40065;49.894;10.358;2022-12-11T20:03:48;18.52;;;9.10;;
54157;SDS011;40065;49.894;10.358;2022-12-11T20:08:51;20.17;;;9.10;;
54157;SDS011;40065;49.894;10.358;2022-12-11T20:13:53;21.67;;;9.30;;
54157;SDS011;40065;49.894;10.358;2022-12-11T20:18:56;17.42;;;7.72;;
54157;SDS011;40065;49.894;10.358;2022-12-11T20:23:58;14.70;;;7.40;;
54157;SDS011;40065;49.894;10.358;2022-12-11T20:29:00;21.63;;;10.05;;
54157;SDS011;40065;49.894;10.358;2022-12-11T20:39:07;17.40;;;8.10;;
54157;SDS011;40065;49.894;10.358;2022-12-11T20:44:09;22.30;;;10.25;;
54157;SDS011;40065;49.894;10.358;2022-12-11T20:49:10;21.55;;;9.27;;
54157;SDS011;40065;49.894;10.358;2022-12-11T20:54:13;17.42;;;8.30;;
54157;SDS011;40065;49.894;10.358;2022-12-11T20:59:15;15.85;;;7.88;;
54157;SDS011;40065;49.894;10.358;2022-12-11T21:04:17;20.73;;;9.50;;
54157;SDS011;40065;49.894;10.358;2022-12-11T21:09:19;19.15;;;9.13;;
54157;SDS011;40065;49.894;10.358;2022-12-11T21:14:22;21.27;;;8.80;;
54157;SDS011;40065;49.894;10.358;2022-12-11T21:19:24;19.27;;;9.43;;
54157;SDS011;40065;49.894;10.358;2022-12-11T21:24:27;15.60;;;8.48;;
54157;SDS011;40065;49.894;10.358;2022-12-11T21:29:30;16.20;;;7.82;;
54157;SDS011;40065;49.894;10.358;2022-12-11T21:34:32;19.92;;;8.82;;
54157;SDS011;40065;49.894;10.358;2022-12-11T21:39:34;15.07;;;8.20;;
54157;SDS011;40065;49.894;10.358;2022-12-11T21:44:39;17.33;;;8.13;;
54157;SDS011;40065;49.894;10.358;2022-12-11T21:50:01;16.00;;;8.45;;
54157;SDS011;40065;49.894;10.358;2022-12-11T21:55:04;16.63;;;8.00;;
54157;SDS011;40065;49.894;10.358;2022-12-11T22:00:07;20.27;;;9.23;;
54157;SDS011;40065;49.894;10.358;2022-12-11T22:05:12;26.83;;;11.02;;
54157;SDS011;40065;49.894;10.358;2022-12-11T22:10:14;21.00;;;8.70;;
54157;SDS011;40065;49.894;10.358;2022-12-11T22:15:16;20.10;;;9.25;;
54157;SDS011;40065;49.894;10.358;2022-12-11T22:20:18;20.17;;;8.73;;
54157;SDS011;40065;49.894;10.358;2022-12-11T22:25:20;16.02;;;8.65;;
54157;SDS011;40065;49.894;10.358;2022-12-11T22:30:22;17.73;;;8.50;;
54157;SDS011;40065;49.894;10.358;2022-12-11T22:35:23;20.40;;;8.38;;
54157;SDS011;40065;49.894;10.358;2022-12-11T22:40:28;19.63;;;9.55;;
54157;SDS011;40065;49.894;10.358;2022-12-11T22:45:30;18.40;;;9.18;;
54157;SDS011;40065;49.894;10.358;2022-12-11T22:50:32;23.30;;;10.80;;
54157;SDS011;40065;49.894;10.358;2022-12-11T22:55:36;21.58;;;9.82;;
54157;SDS011;40065;49.894;10.358;2022-12-11T23:00:39;19.42;;;8.93;;
54157;SDS011;40065;49.894;10.358;2022-12-11T23:05:42;21.35;;;9.48;;
54157;SDS011;40065;49.894;10.358;2022-12-11T23:10:44;19.40;;;9.57;;
54157;SDS011;40065;49.894;10.358;2022-12-11T23:15:46;18.83;;;9.32;;
54157;SDS011;40065;49.894;10.358;2022-12-11T23:20:48;20.58;;;9.68;;
54157;SDS011;40065;49.894;10.358;2022-12-11T23:25:50;21.83;;;10.35;;
54157;SDS011;40065;49.894;10.358;2022-12-11T23:30:52;20.42;;;10.13;;
54157;SDS011;40065;49.894;10.358;2022-12-11T23:35:53;25.60;;;10.23;;
54157;SDS011;40065;49.894;10.358;2022-12-11T23:40:57;25.38;;;10.70;;
54157;SDS011;40065;49.894;10.358;2022-12-11T23:46:00;21.67;;;10.93;;
54157;SDS011;40065;49.894;10.358;2022-12-11T23:51:03;24.55;;;10.48;;
54157;SDS011;40065;49.894;10.358;2022-12-11T23:56:07;25.23;;;10.93;;
